Timeline UpdatesTrip UpdatesNews PostsPvt PostsTravel TipsAdmin PostsConv PostsFollowed PostsChat RequestsBlog PostsPNR Posts

Disclaimer
Search
 
 
Sat Aug 23, 2014 14:58:17 ISTHomeTrainsΣChainsAtlasPNRForumGalleryNewsFAQTripsMembersLoginFeedback
No Recent News for this Train
Other Trains in the News **new
Latest...
.
Sun Jun 15, 2014 (06:39PM)
⇐ Return Journey: Train# 13351

13352/Alappuzha-Dhanbad Express

Mar 06 2014 (2:56PM)
Change Departure Station:
Change Arrival Station:
Post a Train Travel TipPost a Train Travel Tip **new
Post a Comment/Question/Picture/VideoPost a Comment/Question/Picture/Video
Pantry/Catering
✓ Pantry Car Avbl
✓ Catering Avbl
Average!! Pantry goes with Dhanbad rake; Additional:the food was well...
Read more...
below average, not only the snacks and tea/coffee but also the meals were of poor quality.
Loco/Rake Reversals
VSKP/Visakhapatnam Junction (8); MAS/Chennai Central (12); SRR/Shoranur Junction (7);
RSA - Rake Sharing
Rake/Coach Composition
LOCO-SLR-GEN-S1-S2-S3-S4-S5-S6-S7-S8-PC-A1-B1-B2*-A2*-ST1*-ST2*-ST3*-ST4*-ST5*-GEN*-SLR*; * coaches indicate slip coaches to TATA Detached at ROU
Loco
Official Loco:- ALLP - MAS:- WAP-4/WAM-1 MAS - VSKP:- WAM-4/WAP-1 VSKP - ROU:-...
Read more...
WDM-3A/WDG-3A ROU - DHN :- WAM-4
News    PNR    Forum    Time-Table    Availability    Fare Chart    Map    Arr/Dep History    Trips    Gallery    ΣChains    X/O    Timeline    
Travel Time: 55h 15m    94 halts    Distance: 2533 km    Avg Speed: 45 km/hr
Type: Mail/Express
Zone: ECR/East Central
Departs @ 06:00 (Avg 7m late)
Platform# 1
SMTWTFS
Alappuzha/ALLP 
Arrives @ 13:15 +2 nights (Avg 5m late)
Platform# 5
SMTWTFS
Dhanbad Junction/DHN 

94 halts. 419 intermediate Stations between Alappuzha and Dhanbad Junction

Show ALL intermediate Stations  Show Old Time-Table

#CodeStation NameX/OArrivesAvgDepartsAvgHaltPFDay#KmSpeedElevZoneAddress
1ALLP»Alappuzha (3)»  -06:00+7110.0668mSRPh:0477-2253965, Kerala
2MAKMMararikkulam (1)  06:12+906:13+101m1113.16612mSRMararikulam, Kerala
3SRTLCherthala (3)X  06:23+1506:25+162m1124.1667mSRPh: 0478- 2812500, Kerala
4TUVRTuravur (2)X  06:34+1906:35+201m1134.1405mSRThuravoor, Kerala
5ERSErnakulam Junction (South) (6)  07:10+1207:15+135m1157.5533mSRErnakulam 682016, Kerala
6AWYAluva (3)X  07:37+1907:40+193m3176.95712mSRPh: 0484-2624141, Kerala
7TCRThrissur (4)  08:37+1108:40+113m21131.5366mSRThrissur Tel: 0487 2423150, Kerala
8SRRShoranur Junction (7)X09:35-109:45+1310m--1164.55326mSRShoranur ph.no 0466-2222913, Kerala
9PGTPalakkad Junction (4)X  10:35+610:40+85m--1208.84584mSRPalghat Tel: 0491 2555231, Kerala
10CBECoimbatore Main Junction (6)X  11:55+712:00+95m--1264.571416mSRCoimbatore 641001, Tamil Nadu
11TUPTiruppur (2)X  12:43+1712:45+182m21315.146305mSRTiruppur. Ph:0421-2200450, Tamil Nadu
12EDErode Junction (4)  13:50+314:00+1110m11365.067175mSRErode ph.no: 0424-2256111, Tamil Nadu
13SASalem Junction (6)X  14:55+1215:00+125m41426.878283mSRSalem, Tamil Nadu
14BQIBommidi  15:33+1715:35+162m--1469.8850mSRBommidi ph.no. 04346-244441, Tamil Nadu
15SLYSamalpatti  16:08+1916:10+192m--1516.350388mSRSamalpatti ph.no. 04341-245601, Tamil Nadu
16TPTTirupattur (2)  16:38+1416:40+142m--1539.618392mSRTirupattur ph.no. 04179-220062, Tamil Nadu
17JTJJolarpettai Junction (5)X  17:05+1217:10+165m41547.066405mSRJolarpettai, Tamil Nadu
18VNVaniyambadiX  17:24+2017:25+211m21562.567357mSRVaniyambadi, Tamil Nadu
19GYMGudiyattam (3)  18:04+1518:05+171m21606.364269mSRVellore, Tamil Nadu
20KPDKatpadi Junction (5)X  18:28+1818:30+192m21630.852213mSRVellore 632007, Tamil Nadu
21MCNMukundarayapuram (2)X  18:49+2018:50+241m--1647.459198mSRSipcot Ranipet, Tamil Nadu
22AJJArakkonam Junction (8)X  19:35+3419:40+335m21691.67091mSRArakkonam, Tamil Nadu
23TRLTiruvallur (6)  20:03+4420:05+502m11718.67250mSRTiruvallur, Tamil Nadu
24PERPerambur (4)XO  20:35+1:2420:37+1:222m11754.837mSRChennai-600011 Phone: 044-25510359, Tamil Nadu
25MASChennai Central (12)22:15+1623:00+1345m101760.3739mSRChennai 600003, Tamil Nadu
26SPESullurupeta (3)  00:08+3100:10+362m12842.7719mSR524121., Andhra Pradesh
27NYPNayadupeta (3)XO  00:33+3900:35+492m12869.91733mSRNayudupeta, Andhra Pradesh
28GDRGudur Junction (3)X  02:15+202:17+72m22897.69219mSCRGudur, Andhra Pradesh
29NLRNellore (4)  02:42+1702:43+181m22936.17921mSCRNellore, Andhra Pradesh
30BTTRBitragunta (2)  03:09+2503:10+281m12970.45815mSCRBitragunta, Andhra Pradesh
31KVZKavali (4)X  03:27+3203:28+331m32986.99121mSCRKavali, Andhra Pradesh
32SKMSingarayakonda (2)X  03:53+3803:54+391m121024.65326mSCRSingarayakonda, Andhra Pradesh
33OGLOngole (3)X  04:26+3704:27+381m121052.97612mSCROngole, Andhra Pradesh
34CJMChinnaganjam (3)X  04:50+4204:51+421m--21081.9819mSCRChinna Ganjam, Andhra Pradesh
35CLXChirala (4)  05:06+4305:07+431m--21102.2758mSCRChirala, Andhra Pradesh
36BPPBapatla (3)  05:19+4505:20+451m--21117.36910mSCRBapatla, Andhra Pradesh
37NDONidubrolu (3)X  05:38+4905:39+491m--21137.8839mSCRNidubrolu, Andhra Pradesh
38TELTenali Junction (5)X  05:55+5305:56+541m421159.92516mSCRTel: 08644-227834, Andhra Pradesh
39BZAVijayawada Junction (10)X  07:10+2407:30+2820m321191.17724mSCRVijayawada 520001, Andhra Pradesh
40EEEluru (3)  08:16+5008:17+511m221250.59019mSCREluru Ph.no. 08812 226401., Andhra Pradesh
41TDDTadepalligudem (3)X  08:49+5508:50+561m221298.34418mSCRTadepalligudem, Andhra Pradesh
42NDDNidadavolu Junction (3)  09:17+5309:18+541m--21318.33620mSCRNidadavolu jtn ph.no. 08813-210325, Andhra Pradesh
43KVRKovvur (3)  09:42+5209:43+551m--21332.62125mSCRWest Godavari, Andhra Pradesh
44GVNGodavari  09:57+4909:58+501m--21337.41524mSCRRajahmundry, Andhra Pradesh
45RJYRajahmundry (3)X  10:10+5010:15+495m321340.47023mSCRRajahmundry ph.no. 0883-2420541, Andhra Pradesh
46DWPDwarapudi (3)X  10:32+5610:33+561m--21360.34520mSCREast Godavari District, Andhra Pradesh
47APTAnaparti (3)  10:38+5810:39+581m--21364.17621mSCREast Godavari District, Andhra Pradesh
48SLOSamalkot Junction (3)X  11:00+5911:01+1:011m121390.66018mSCRSamalkot, Andhra Pradesh
49PAPPithapuram (2)  11:13+1:0111:14+1:011m--21402.75722mSCREast Godavari District, Andhra Pradesh
50GLPGollaprolu  11:20+1:1011:21+1:101m--21408.48219mSCRGollaprollu, Andhra Pradesh
51ANVAnnavaram (3)X  11:35+1:0511:36+1:081m321427.56727mSCREast Godavari District, Andhra Pradesh
52TUNITuni (2)X  11:51+1:1211:52+1:131m221444.16124mSCRTuni ph.no. 08854-252172, Andhra Pradesh
53NRPNarsipatnam Road (2)  12:14+1:0912:15+1:091m--21466.46718mSCRVisakhapatnam District, Andhra Pradesh
54YLMElamanchili (2)  12:31+1:1212:32+1:131m--21484.25323mSCRVisakhapatnam District, Andhra Pradesh
55AKPAnakapalle (3)X  12:59+5613:00+581m--21507.91230mSCRAnakapalle ph.no . 08924-221698, Andhra Pradesh
56DVDDuvvada (4)X  14:23+2114:25+212m--21523.92046mECoRVishakhapatnam District, Andhra Pradesh
57VSKPVisakhapatnam Junction (8)X15:15+415:35+1220m321540.23011mECoRVishakhapatnam 530001, Andhra Pradesh
58SCMSimhachalam (2)  15:51-15:53-2m--21548.37227mECoRVisakhapatnam, Andhra Pradesh
59KTVKottavalasa Junction (5)X  16:08+1816:10+182m--21566.46658mECoRVizianagaram District, Andhra Pradesh
60VZMVizianagaram Junction (5)X  16:42+1916:47+195m--21601.47263mECoRVizianagaram, Andhra Pradesh
61VBLBobbili Junction (2)X  17:32+1917:35+193m121655.768137mECoRBobbili, Andhra Pradesh
62PVPParvatipuram (3)  17:56+1717:58+172m--21679.625122mECoRParvatipuram, Andhra Pradesh
63PVPTParvatipuram Town  18:02+018:04+02m--21681.259121mECoRParvatipuram, Andhra Pradesh
64RGDARayagada (3)X  18:50+919:05+915m--21726.537229mECoRRayagada ph.no 06856-222407, Odisha
65SPRDSingapuram Road (2)  19:20+819:22+82m--21735.751248mECoRJaykaypur, Odisha
66THVTherubaliX  19:33+1619:35+182m--21745.162270mECoRRayagada, Odisha
67MNGDMunigudaX  20:10+1920:12+202m--21781.171335mECoRMuniguda, Odisha
68AMBAmbodala  20:33+2320:35+232m--21806.165374mECoRState Highway 6, Odisha
69NRLRNorla RoadX  20:58+2121:00+212m--21831.140247mECoRKalahandi, Odisha
70RPRDRupra Road  21:10+1921:12+192m--21837.761233mECoRKalahandi, Odisha
71KSNGKesinga (1)  21:28+1821:30+192m121853.942183mECoRKesinga, Odisha
72TIGTitlagarh Junction (3)  21:50+1622:00+1910m321867.960212mECoRTitlagarh, Odisha
73BUDMBadmal  22:20+2322:22+242m--21887.869209mECoRDumerbahal Rd, Odisha
74BLGRBalangir (3)X  23:00+2223:05+315m--21931.266210mECoRBolangir, Odisha
75BRPLBarpali  23:57+3223:59+352m--21988.368178mECoRBarpali, Odisha
76BRGABargarh Road (3)X  00:16+3700:21+405m--32007.549185mECoRBargarh, Odisha
77ATSAttabira  00:43+3400:45+362m--32025.621164mECoRBargarh, Odisha
78SBPSambalpur Junction (3)X  01:55+702:05+1010m--32050.115159mECoRSambalpur, Odisha
79SBPDSambalpur Road  02:11-02:13-2m--32051.650161mECoRSambalpur, Odisha
80RGLRengali  02:38+802:40+122m--32072.332208mECoRState Highway 10, Odisha
81JSGJharsuguda Junction (5)  03:30+1203:40+1310m--32098.778236mSERJharsuguda, Odisha
82BMBBamra (3)  04:08+1604:09+161m--32135.280259mSERBamra PH : 06642-229268, Odisha
83GPRaj Gangpur (3)X  04:35+1804:36+191m232169.853237mSERRaj Ganpur, Odisha
84ROURourkela Junction (5)X05:10+1505:30+1420m--32199.642198mSERRourkela, Odisha
85NXNNuagaon  06:09+806:10+101m--32226.857218mSERKeonjhar, Odisha
86BANOBano  06:54+1806:55+191m--32268.974452mSERDist. Gumla, Jharkhand
87GBXGovindpur Road07:38+2107:40+212m--32322.163577mSERkhunti, Jharkhand
88HTEHatia (3)  08:20+1908:25+205m332363.928657mSER2788599, Jharkhand
89RNCRanchi Junction (6)  08:40+2008:55+1915m132370.949632mSERDiv HQ SER, Jharkhand
90MURIMuri Junction (3)X  10:08+1010:10+102m132431.039254mSER06522-222444, Jharkhand
91JAAJhalida (3)  10:29+1110:30+121m--32443.358297mSERJhalida, West Bengal
92PNWPundhag (3)  10:54+1410:55+141m132466.650291mSERDist - Puruliya -723215, West Bengal
93BKSCBokaro Steel City (3)  11:15+911:25+810m132483.231245mSER06542-253861, Jharkhand
94CRPChandrapura Junction (2)X  11:55+1111:58+123m132498.832227mECR06549-242555, Jharkhand
95KTHKatrasgarh (1)  12:37+812:39+82m132519.223198mECRKatrasgarh, Jharkhand
96DHN•Dhanbad Junction (8)•  13:15+5-532533.0-235mECR2319801. Div. HQ ECR, Jharkhand
Scroll to Top
Scroll to Bottom